sensor_id;sensor_type;location;lat;lon;timestamp;P1;durP1;ratioP1;P2;durP2;ratioP2
26620;SDS011;14253;44.840;10.444;2023-10-13T00:00:37;19.77;;;11.50;;
26620;SDS011;14253;44.840;10.444;2023-10-13T00:03:08;18.95;;;10.93;;
26620;SDS011;14253;44.840;10.444;2023-10-13T00:05:40;19.10;;;11.38;;
26620;SDS011;14253;44.840;10.444;2023-10-13T00:08:08;18.05;;;10.75;;
26620;SDS011;14253;44.840;10.444;2023-10-13T00:10:35;13.40;;;10.43;;
26620;SDS011;14253;44.840;10.444;2023-10-13T00:13:02;14.90;;;10.73;;
26620;SDS011;14253;44.840;10.444;2023-10-13T00:15:40;23.23;;;11.57;;
26620;SDS011;14253;44.840;10.444;2023-10-13T00:18:23;20.73;;;12.30;;
26620;SDS011;14253;44.840;10.444;2023-10-13T00:20:52;20.95;;;11.85;;
26620;SDS011;14253;44.840;10.444;2023-10-13T00:23:22;19.17;;;11.85;;
26620;SDS011;14253;44.840;10.444;2023-10-13T00:25:51;17.98;;;12.05;;
26620;SDS011;14253;44.840;10.444;2023-10-13T00:28:25;17.58;;;11.52;;
26620;SDS011;14253;44.840;10.444;2023-10-13T00:30:59;19.35;;;11.52;;
26620;SDS011;14253;44.840;10.444;2023-10-13T00:33:26;19.73;;;11.35;;
26620;SDS011;14253;44.840;10.444;2023-10-13T00:35:53;15.90;;;11.23;;
26620;SDS011;14253;44.840;10.444;2023-10-13T00:41:23;17.83;;;11.93;;
26620;SDS011;14253;44.840;10.444;2023-10-13T00:44:11;20.50;;;11.60;;
26620;SDS011;14253;44.840;10.444;2023-10-13T00:46:43;17.35;;;12.18;;
26620;SDS011;14253;44.840;10.444;2023-10-13T00:49:10;17.20;;;11.15;;
26620;SDS011;14253;44.840;10.444;2023-10-13T00:51:44;21.10;;;12.37;;
26620;SDS011;14253;44.840;10.444;2023-10-13T00:54:13;20.02;;;12.45;;
26620;SDS011;14253;44.840;10.444;2023-10-13T00:56:42;17.95;;;11.07;;
26620;SDS011;14253;44.840;10.444;2023-10-13T00:59:30;20.55;;;12.23;;
26620;SDS011;14253;44.840;10.444;2023-10-13T01:01:59;18.02;;;12.05;;
26620;SDS011;14253;44.840;10.444;2023-10-13T01:04:46;17.08;;;12.02;;
26620;SDS011;14253;44.840;10.444;2023-10-13T01:07:13;19.65;;;12.68;;
26620;SDS011;14253;44.840;10.444;2023-10-13T01:09:41;18.50;;;12.10;;
26620;SDS011;14253;44.840;10.444;2023-10-13T01:12:07;17.67;;;12.10;;
26620;SDS011;14253;44.840;10.444;2023-10-13T01:14:34;19.08;;;11.75;;
26620;SDS011;14253;44.840;10.444;2023-10-13T01:17:01;19.17;;;13.00;;
26620;SDS011;14253;44.840;10.444;2023-10-13T01:19:29;18.10;;;12.68;;
26620;SDS011;14253;44.840;10.444;2023-10-13T01:22:04;19.45;;;12.52;;
26620;SDS011;14253;44.840;10.444;2023-10-13T01:24:32;17.95;;;12.38;;
26620;SDS011;14253;44.840;10.444;2023-10-13T01:27:04;18.35;;;12.20;;
26620;SDS011;14253;44.840;10.444;2023-10-13T01:29:50;19.17;;;11.40;;
26620;SDS011;14253;44.840;10.444;2023-10-13T01:32:23;17.75;;;12.98;;
26620;SDS011;14253;44.840;10.444;2023-10-13T01:34:50;20.38;;;13.15;;
26620;SDS011;14253;44.840;10.444;2023-10-13T01:37:21;17.75;;;12.95;;
26620;SDS011;14253;44.840;10.444;2023-10-13T01:39:48;22.63;;;11.88;;
26620;SDS011;14253;44.840;10.444;2023-10-13T01:42:15;19.10;;;12.13;;
26620;SDS011;14253;44.840;10.444;2023-10-13T01:44:51;23.85;;;13.15;;
26620;SDS011;14253;44.840;10.444;2023-10-13T01:47:17;21.48;;;13.80;;
26620;SDS011;14253;44.840;10.444;2023-10-13T01:49:43;23.20;;;12.95;;
26620;SDS011;14253;44.840;10.444;2023-10-13T01:52:13;20.05;;;13.20;;
26620;SDS011;14253;44.840;10.444;2023-10-13T01:54:44;22.17;;;12.50;;
26620;SDS011;14253;44.840;10.444;2023-10-13T01:57:11;17.55;;;11.38;;
26620;SDS011;14253;44.840;10.444;2023-10-13T01:59:43;17.40;;;11.45;;
26620;SDS011;14253;44.840;10.444;2023-10-13T02:02:10;14.38;;;10.57;;
26620;SDS011;14253;44.840;10.444;2023-10-13T02:04:42;18.45;;;12.30;;
26620;SDS011;14253;44.840;10.444;2023-10-13T02:07:21;17.58;;;11.60;;
26620;SDS011;14253;44.840;10.444;2023-10-13T02:09:51;19.77;;;11.35;;
26620;SDS011;14253;44.840;10.444;2023-10-13T02:12:20;17.55;;;11.18;;
26620;SDS011;14253;44.840;10.444;2023-10-13T02:14:54;14.07;;;10.20;;
26620;SDS011;14253;44.840;10.444;2023-10-13T02:17:20;13.98;;;9.77;;
26620;SDS011;14253;44.840;10.444;2023-10-13T02:22:19;17.38;;;9.27;;
26620;SDS011;14253;44.840;10.444;2023-10-13T02:24:57;13.43;;;9.82;;
26620;SDS011;14253;44.840;10.444;2023-10-13T02:27:27;14.02;;;9.40;;
26620;SDS011;14253;44.840;10.444;2023-10-13T02:29:53;12.13;;;8.88;;
26620;SDS011;14253;44.840;10.444;2023-10-13T02:32:24;14.07;;;8.95;;
26620;SDS011;14253;44.840;10.444;2023-10-13T02:34:51;14.88;;;9.05;;
26620;SDS011;14253;44.840;10.444;2023-10-13T02:37:17;14.60;;;9.48;;
26620;SDS011;14253;44.840;10.444;2023-10-13T02:39:45;15.25;;;9.90;;
26620;SDS011;14253;44.840;10.444;2023-10-13T02:42:11;17.38;;;9.68;;
26620;SDS011;14253;44.840;10.444;2023-10-13T02:44:50;14.30;;;9.95;;
26620;SDS011;14253;44.840;10.444;2023-10-13T02:47:16;13.95;;;9.63;;
26620;SDS011;14253;44.840;10.444;2023-10-13T02:49:44;16.48;;;9.57;;
26620;SDS011;14253;44.840;10.444;2023-10-13T02:52:12;18.27;;;10.60;;
26620;SDS011;14253;44.840;10.444;2023-10-13T02:54:39;17.20;;;9.63;;
26620;SDS011;14253;44.840;10.444;2023-10-13T02:57:12;13.93;;;10.13;;
26620;SDS011;14253;44.840;10.444;2023-10-13T02:59:41;14.95;;;9.90;;
26620;SDS011;14253;44.840;10.444;2023-10-13T03:02:13;15.25;;;10.05;;
26620;SDS011;14253;44.840;10.444;2023-10-13T03:04:53;15.00;;;10.40;;
26620;SDS011;14253;44.840;10.444;2023-10-13T03:07:29;14.13;;;9.52;;
26620;SDS011;14253;44.840;10.444;2023-10-13T03:09:57;13.52;;;9.88;;
26620;SDS011;14253;44.840;10.444;2023-10-13T03:12:25;14.02;;;9.63;;
26620;SDS011;14253;44.840;10.444;2023-10-13T03:14:58;17.42;;;11.25;;
26620;SDS011;14253;44.840;10.444;2023-10-13T03:17:42;14.98;;;10.95;;
26620;SDS011;14253;44.840;10.444;2023-10-13T03:20:15;15.68;;;10.43;;
26620;SDS011;14253;44.840;10.444;2023-10-13T03:22:47;16.15;;;11.43;;
26620;SDS011;14253;44.840;10.444;2023-10-13T03:25:17;14.65;;;10.15;;
26620;SDS011;14253;44.840;10.444;2023-10-13T03:28:10;15.25;;;10.85;;
26620;SDS011;14253;44.840;10.444;2023-10-13T03:30:42;17.40;;;11.32;;
26620;SDS011;14253;44.840;10.444;2023-10-13T03:33:08;16.83;;;11.27;;
26620;SDS011;14253;44.840;10.444;2023-10-13T03:35:37;17.35;;;10.82;;
26620;SDS011;14253;44.840;10.444;2023-10-13T03:38:07;15.32;;;9.82;;
26620;SDS011;14253;44.840;10.444;2023-10-13T03:40:42;15.88;;;10.57;;
26620;SDS011;14253;44.840;10.444;2023-10-13T03:43:14;13.35;;;10.43;;
26620;SDS011;14253;44.840;10.444;2023-10-13T03:45:48;19.98;;;10.18;;
26620;SDS011;14253;44.840;10.444;2023-10-13T03:48:26;15.43;;;10.32;;
26620;SDS011;14253;44.840;10.444;2023-10-13T03:50:53;14.43;;;10.77;;
26620;SDS011;14253;44.840;10.444;2023-10-13T03:53:31;17.63;;;10.10;;
26620;SDS011;14253;44.840;10.444;2023-10-13T03:56:00;13.23;;;9.77;;
26620;SDS011;14253;44.840;10.444;2023-10-13T03:58:51;17.30;;;10.45;;
26620;SDS011;14253;44.840;10.444;2023-10-13T04:01:41;15.55;;;10.57;;
26620;SDS011;14253;44.840;10.444;2023-10-13T04:04:33;18.50;;;10.68;;
26620;SDS011;14253;44.840;10.444;2023-10-13T04:07:00;18.67;;;10.95;;
26620;SDS011;14253;44.840;10.444;2023-10-13T04:09:32;13.65;;;9.93;;
26620;SDS011;14253;44.840;10.444;2023-10-13T04:12:00;16.33;;;10.50;;
26620;SDS011;14253;44.840;10.444;2023-10-13T04:14:33;16.60;;;10.68;;
26620;SDS011;14253;44.840;10.444;2023-10-13T04:17:25;20.08;;;11.88;;
26620;SDS011;14253;44.840;10.444;2023-10-13T04:19:52;19.45;;;11.77;;
26620;SDS011;14253;44.840;10.444;2023-10-13T04:22:30;13.65;;;11.02;;
26620;SDS011;14253;44.840;10.444;2023-10-13T04:25:20;13.77;;;10.75;;
26620;SDS011;14253;44.840;10.444;2023-10-13T04:28:09;17.90;;;10.63;;
26620;SDS011;14253;44.840;10.444;2023-10-13T04:30:45;16.45;;;11.45;;
26620;SDS011;14253;44.840;10.444;2023-10-13T04:33:27;16.17;;;11.05;;
26620;SDS011;14253;44.840;10.444;2023-10-13T04:36:09;18.45;;;11.02;;
26620;SDS011;14253;44.840;10.444;2023-10-13T04:38:45;18.85;;;10.32;;
26620;SDS011;14253;44.840;10.444;2023-10-13T04:41:31;16.10;;;10.52;;
26620;SDS011;14253;44.840;10.444;2023-10-13T04:44:23;13.68;;;9.52;;
26620;SDS011;14253;44.840;10.444;2023-10-13T04:46:56;17.35;;;9.85;;
26620;SDS011;14253;44.840;10.444;2023-10-13T04:49:26;15.40;;;11.02;;
26620;SDS011;14253;44.840;10.444;2023-10-13T04:51:56;16.70;;;11.07;;
26620;SDS011;14253;44.840;10.444;2023-10-13T04:57:11;15.80;;;11.00;;
26620;SDS011;14253;44.840;10.444;2023-10-13T04:59:56;18.98;;;11.07;;
26620;SDS011;14253;44.840;10.444;2023-10-13T05:02:35;15.68;;;10.95;;
26620;SDS011;14253;44.840;10.444;2023-10-13T05:05:03;17.10;;;11.48;;
26620;SDS011;14253;44.840;10.444;2023-10-13T05:07:33;17.67;;;10.82;;
26620;SDS011;14253;44.840;10.444;2023-10-13T05:10:17;19.08;;;10.98;;
26620;SDS011;14253;44.840;10.444;2023-10-13T05:13:02;24.58;;;11.43;;
26620;SDS011;14253;44.840;10.444;2023-10-13T05:15:47;18.00;;;10.60;;
26620;SDS011;14253;44.840;10.444;2023-10-13T05:18:33;16.58;;;10.60;;
26620;SDS011;14253;44.840;10.444;2023-10-13T05:21:17;19.50;;;11.27;;
26620;SDS011;14253;44.840;10.444;2023-10-13T05:24:02;23.40;;;11.95;;
26620;SDS011;14253;44.840;10.444;2023-10-13T05:26:48;15.50;;;10.55;;
26620;SDS011;14253;44.840;10.444;2023-10-13T05:29:33;21.20;;;11.20;;
26620;SDS011;14253;44.840;10.444;2023-10-13T05:32:17;18.27;;;10.80;;
26620;SDS011;14253;44.840;10.444;2023-10-13T05:35:02;18.23;;;10.90;;
26620;SDS011;14253;44.840;10.444;2023-10-13T05:37:46;16.60;;;11.27;;
26620;SDS011;14253;44.840;10.444;2023-10-13T05:40:31;20.38;;;10.88;;
26620;SDS011;14253;44.840;10.444;2023-10-13T05:43:16;15.55;;;10.95;;
26620;SDS011;14253;44.840;10.444;2023-10-13T05:46:01;15.80;;;10.63;;
26620;SDS011;14253;44.840;10.444;2023-10-13T05:48:29;22.77;;;10.70;;
26620;SDS011;14253;44.840;10.444;2023-10-13T05:51:27;21.38;;;10.07;;
26620;SDS011;14253;44.840;10.444;2023-10-13T05:54:12;17.73;;;10.00;;
26620;SDS011;14253;44.840;10.444;2023-10-13T05:56:42;18.17;;;10.45;;
26620;SDS011;14253;44.840;10.444;2023-10-13T05:59:27;17.45;;;10.45;;
26620;SDS011;14253;44.840;10.444;2023-10-13T06:02:14;16.92;;;10.30;;
26620;SDS011;14253;44.840;10.444;2023-10-13T06:05:05;15.07;;;10.60;;
26620;SDS011;14253;44.840;10.444;2023-10-13T06:07:52;14.02;;;10.35;;
26620;SDS011;14253;44.840;10.444;2023-10-13T06:10:37;15.80;;;10.02;;
26620;SDS011;14253;44.840;10.444;2023-10-13T06:13:22;17.88;;;11.25;;
26620;SDS011;14253;44.840;10.444;2023-10-13T06:16:08;13.90;;;9.85;;
26620;SDS011;14253;44.840;10.444;2023-10-13T06:18:56;17.40;;;10.82;;
26620;SDS011;14253;44.840;10.444;2023-10-13T06:21:41;13.45;;;9.93;;
26620;SDS011;14253;44.840;10.444;2023-10-13T06:24:26;15.57;;;10.25;;
26620;SDS011;14253;44.840;10.444;2023-10-13T06:27:10;23.88;;;11.82;;
26620;SDS011;14253;44.840;10.444;2023-10-13T06:29:55;16.40;;;10.55;;
26620;SDS011;14253;44.840;10.444;2023-10-13T06:35:49;20.85;;;11.98;;
26620;SDS011;14253;44.840;10.444;2023-10-13T06:38:15;19.40;;;10.73;;
26620;SDS011;14253;44.840;10.444;2023-10-13T06:40:46;24.63;;;11.55;;
26620;SDS011;14253;44.840;10.444;2023-10-13T06:43:13;16.25;;;11.13;;
26620;SDS011;14253;44.840;10.444;2023-10-13T06:45:43;20.60;;;10.95;;
26620;SDS011;14253;44.840;10.444;2023-10-13T06:48:16;14.32;;;10.70;;
26620;SDS011;14253;44.840;10.444;2023-10-13T06:50:49;19.95;;;10.90;;
26620;SDS011;14253;44.840;10.444;2023-10-13T06:53:18;16.75;;;9.95;;
26620;SDS011;14253;44.840;10.444;2023-10-13T06:55:44;19.70;;;12.30;;
26620;SDS011;14253;44.840;10.444;2023-10-13T06:58:13;19.48;;;11.20;;
26620;SDS011;14253;44.840;10.444;2023-10-13T07:00:40;22.73;;;10.00;;
26620;SDS011;14253;44.840;10.444;2023-10-13T07:03:06;21.33;;;11.27;;
26620;SDS011;14253;44.840;10.444;2023-10-13T07:05:37;19.05;;;10.85;;
26620;SDS011;14253;44.840;10.444;2023-10-13T07:08:10;19.05;;;10.35;;
26620;SDS011;14253;44.840;10.444;2023-10-13T07:10:52;18.17;;;10.27;;
26620;SDS011;14253;44.840;10.444;2023-10-13T07:13:35;19.58;;;10.80;;
26620;SDS011;14253;44.840;10.444;2023-10-13T07:16:08;23.88;;;10.82;;
26620;SDS011;14253;44.840;10.444;2023-10-13T07:18:38;24.80;;;10.95;;
26620;SDS011;14253;44.840;10.444;2023-10-13T07:21:17;16.40;;;10.55;;
26620;SDS011;14253;44.840;10.444;2023-10-13T07:23:54;21.48;;;10.48;;
26620;SDS011;14253;44.840;10.444;2023-10-13T07:26:33;21.27;;;11.20;;
26620;SDS011;14253;44.840;10.444;2023-10-13T07:29:08;23.08;;;11.45;;
26620;SDS011;14253;44.840;10.444;2023-10-13T07:31:35;18.55;;;10.73;;
26620;SDS011;14253;44.840;10.444;2023-10-13T07:34:03;17.73;;;10.48;;
26620;SDS011;14253;44.840;10.444;2023-10-13T07:36:41;17.02;;;10.65;;
26620;SDS011;14253;44.840;10.444;2023-10-13T07:39:08;17.83;;;10.97;;
26620;SDS011;14253;44.840;10.444;2023-10-13T07:41:48;19.25;;;11.48;;
26620;SDS011;14253;44.840;10.444;2023-10-13T07:47:11;22.77;;;10.88;;
26620;SDS011;14253;44.840;10.444;2023-10-13T07:49:39;16.38;;;12.02;;
26620;SDS011;14253;44.840;10.444;2023-10-13T07:52:10;23.30;;;12.02;;
26620;SDS011;14253;44.840;10.444;2023-10-13T07:54:49;21.63;;;12.15;;
26620;SDS011;14253;44.840;10.444;2023-10-13T07:57:25;16.05;;;11.70;;
26620;SDS011;14253;44.840;10.444;2023-10-13T07:59:55;19.48;;;12.40;;
26620;SDS011;14253;44.840;10.444;2023-10-13T08:02:36;22.20;;;12.15;;
26620;SDS011;14253;44.840;10.444;2023-10-13T08:05:15;21.80;;;12.80;;
26620;SDS011;14253;44.840;10.444;2023-10-13T08:07:54;22.20;;;11.70;;
26620;SDS011;14253;44.840;10.444;2023-10-13T08:10:21;18.17;;;12.27;;
26620;SDS011;14253;44.840;10.444;2023-10-13T08:12:55;27.27;;;13.00;;
26620;SDS011;14253;44.840;10.444;2023-10-13T08:15:23;24.20;;;14.95;;
26620;SDS011;14253;44.840;10.444;2023-10-13T08:17:59;25.23;;;14.70;;
26620;SDS011;14253;44.840;10.444;2023-10-13T08:20:42;29.17;;;16.65;;
26620;SDS011;14253;44.840;10.444;2023-10-13T08:23:09;24.30;;;15.82;;
26620;SDS011;14253;44.840;10.444;2023-10-13T08:25:41;25.30;;;15.38;;
26620;SDS011;14253;44.840;10.444;2023-10-13T08:28:25;22.80;;;15.43;;
26620;SDS011;14253;44.840;10.444;2023-10-13T08:31:04;25.05;;;16.02;;
26620;SDS011;14253;44.840;10.444;2023-10-13T08:33:48;22.63;;;14.77;;
26620;SDS011;14253;44.840;10.444;2023-10-13T08:36:14;22.63;;;16.02;;
26620;SDS011;14253;44.840;10.444;2023-10-13T08:38:56;19.75;;;13.82;;
26620;SDS011;14253;44.840;10.444;2023-10-13T08:41:23;21.38;;;14.52;;
26620;SDS011;14253;44.840;10.444;2023-10-13T08:43:52;21.83;;;13.93;;
26620;SDS011;14253;44.840;10.444;2023-10-13T08:46:29;21.27;;;16.10;;
26620;SDS011;14253;44.840;10.444;2023-10-13T08:49:16;21.48;;;15.05;;
26620;SDS011;14253;44.840;10.444;2023-10-13T08:51:44;21.95;;;14.43;;
26620;SDS011;14253;44.840;10.444;2023-10-13T08:54:14;23.77;;;13.63;;
26620;SDS011;14253;44.840;10.444;2023-10-13T08:56:47;24.38;;;13.23;;
26620;SDS011;14253;44.840;10.444;2023-10-13T08:59:28;16.83;;;12.57;;
26620;SDS011;14253;44.840;10.444;2023-10-13T09:02:20;19.25;;;12.13;;
26620;SDS011;14253;44.840;10.444;2023-10-13T09:05:07;18.65;;;12.07;;
26620;SDS011;14253;44.840;10.444;2023-10-13T09:07:54;20.60;;;12.52;;
26620;SDS011;14253;44.840;10.444;2023-10-13T09:10:24;24.15;;;13.07;;
26620;SDS011;14253;44.840;10.444;2023-10-13T09:12:58;15.60;;;10.73;;
26620;SDS011;14253;44.840;10.444;2023-10-13T09:15:29;16.98;;;11.70;;
26620;SDS011;14253;44.840;10.444;2023-10-13T09:18:25;19.13;;;11.85;;
26620;SDS011;14253;44.840;10.444;2023-10-13T09:21:08;20.67;;;12.35;;
26620;SDS011;14253;44.840;10.444;2023-10-13T09:23:53;17.42;;;11.25;;
26620;SDS011;14253;44.840;10.444;2023-10-13T09:26:38;19.42;;;11.40;;
26620;SDS011;14253;44.840;10.444;2023-10-13T09:29:13;16.92;;;10.98;;
26620;SDS011;14253;44.840;10.444;2023-10-13T09:31:44;20.08;;;11.82;;
26620;SDS011;14253;44.840;10.444;2023-10-13T09:36:58;15.02;;;9.57;;
26620;SDS011;14253;44.840;10.444;2023-10-13T09:39:25;17.75;;;10.82;;
26620;SDS011;14253;44.840;10.444;2023-10-13T09:42:12;16.13;;;10.57;;
26620;SDS011;14253;44.840;10.444;2023-10-13T09:44:38;14.27;;;9.27;;
26620;SDS011;14253;44.840;10.444;2023-10-13T09:47:07;16.23;;;10.15;;
26620;SDS011;14253;44.840;10.444;2023-10-13T09:49:45;20.67;;;9.88;;
26620;SDS011;14253;44.840;10.444;2023-10-13T09:52:15;15.93;;;10.10;;
26620;SDS011;14253;44.840;10.444;2023-10-13T09:54:53;13.68;;;9.60;;
26620;SDS011;14253;44.840;10.444;2023-10-13T09:57:34;14.18;;;9.00;;
26620;SDS011;14253;44.840;10.444;2023-10-13T10:00:13;11.35;;;8.05;;
26620;SDS011;14253;44.840;10.444;2023-10-13T10:03:12;13.88;;;9.32;;
26620;SDS011;14253;44.840;10.444;2023-10-13T10:05:57;16.58;;;9.45;;
26620;SDS011;14253;44.840;10.444;2023-10-13T10:08:32;14.10;;;9.25;;
26620;SDS011;14253;44.840;10.444;2023-10-13T10:13:35;15.43;;;8.30;;
26620;SDS011;14253;44.840;10.444;2023-10-13T10:16:37;11.70;;;9.15;;
26620;SDS011;14253;44.840;10.444;2023-10-13T10:19:12;13.30;;;8.98;;
26620;SDS011;14253;44.840;10.444;2023-10-13T10:21:38;17.42;;;10.38;;
26620;SDS011;14253;44.840;10.444;2023-10-13T10:24:16;13.07;;;9.02;;
26620;SDS011;14253;44.840;10.444;2023-10-13T10:27:06;12.45;;;8.45;;
26620;SDS011;14253;44.840;10.444;2023-10-13T10:29:32;11.77;;;8.70;;
26620;SDS011;14253;44.840;10.444;2023-10-13T10:31:58;12.60;;;7.95;;
26620;SDS011;14253;44.840;10.444;2023-10-13T10:34:29;16.65;;;9.00;;
26620;SDS011;14253;44.840;10.444;2023-10-13T10:36:57;10.63;;;7.38;;
26620;SDS011;14253;44.840;10.444;2023-10-13T10:39:34;9.32;;;6.68;;
26620;SDS011;14253;44.840;10.444;2023-10-13T10:42:15;15.43;;;8.73;;
26620;SDS011;14253;44.840;10.444;2023-10-13T10:44:41;12.57;;;8.55;;
26620;SDS011;14253;44.840;10.444;2023-10-13T10:47:13;12.23;;;8.73;;
26620;SDS011;14253;44.840;10.444;2023-10-13T10:50:02;12.48;;;8.15;;
26620;SDS011;14253;44.840;10.444;2023-10-13T10:52:45;13.38;;;8.55;;
26620;SDS011;14253;44.840;10.444;2023-10-13T10:55:12;11.20;;;6.90;;
26620;SDS011;14253;44.840;10.444;2023-10-13T10:57:39;12.23;;;7.57;;
26620;SDS011;14253;44.840;10.444;2023-10-13T11:00:20;14.77;;;8.20;;
26620;SDS011;14253;44.840;10.444;2023-10-13T11:02:54;13.50;;;7.35;;
26620;SDS011;14253;44.840;10.444;2023-10-13T11:05:23;13.27;;;6.60;;
26620;SDS011;14253;44.840;10.444;2023-10-13T11:07:57;15.98;;;9.18;;
26620;SDS011;14253;44.840;10.444;2023-10-13T11:10:24;9.93;;;6.75;;
26620;SDS011;14253;44.840;10.444;2023-10-13T11:12:53;13.65;;;7.78;;
26620;SDS011;14253;44.840;10.444;2023-10-13T11:15:46;11.25;;;6.95;;
26620;SDS011;14253;44.840;10.444;2023-10-13T11:18:13;16.80;;;8.32;;
26620;SDS011;14253;44.840;10.444;2023-10-13T11:20:49;10.32;;;6.00;;
26620;SDS011;14253;44.840;10.444;2023-10-13T11:23:19;13.27;;;7.30;;
26620;SDS011;14253;44.840;10.444;2023-10-13T11:28:26;9.68;;;7.35;;
26620;SDS011;14253;44.840;10.444;2023-10-13T11:30:56;12.63;;;6.70;;
26620;SDS011;14253;44.840;10.444;2023-10-13T11:33:24;10.80;;;6.70;;
26620;SDS011;14253;44.840;10.444;2023-10-13T11:35:54;11.32;;;6.75;;
26620;SDS011;14253;44.840;10.444;2023-10-13T11:38:25;12.00;;;6.85;;
26620;SDS011;14253;44.840;10.444;2023-10-13T11:41:08;11.88;;;6.40;;
26620;SDS011;14253;44.840;10.444;2023-10-13T11:46:21;11.23;;;6.53;;
26620;SDS011;14253;44.840;10.444;2023-10-13T11:49:03;16.10;;;6.68;;
26620;SDS011;14253;44.840;10.444;2023-10-13T11:52:06;9.45;;;6.05;;
26620;SDS011;14253;44.840;10.444;2023-10-13T11:54:41;13.98;;;6.30;;
26620;SDS011;14253;44.840;10.444;2023-10-13T11:57:07;10.73;;;6.15;;
26620;SDS011;14253;44.840;10.444;2023-10-13T11:59:33;15.10;;;5.80;;
26620;SDS011;14253;44.840;10.444;2023-10-13T12:02:06;12.20;;;6.65;;
26620;SDS011;14253;44.840;10.444;2023-10-13T12:04:50;10.43;;;6.00;;
26620;SDS011;14253;44.840;10.444;2023-10-13T12:07:28;8.95;;;6.00;;
26620;SDS011;14253;44.840;10.444;2023-10-13T12:10:13;10.57;;;5.95;;
26620;SDS011;14253;44.840;10.444;2023-10-13T12:12:58;10.60;;;6.38;;
26620;SDS011;14253;44.840;10.444;2023-10-13T12:15:31;11.70;;;6.10;;
26620;SDS011;14253;44.840;10.444;2023-10-13T12:18:13;7.03;;;4.70;;
26620;SDS011;14253;44.840;10.444;2023-10-13T12:20:40;12.73;;;5.88;;
26620;SDS011;14253;44.840;10.444;2023-10-13T12:23:11;11.95;;;5.75;;
26620;SDS011;14253;44.840;10.444;2023-10-13T12:25:42;10.23;;;5.65;;
26620;SDS011;14253;44.840;10.444;2023-10-13T12:28:25;10.57;;;6.22;;
26620;SDS011;14253;44.840;10.444;2023-10-13T12:30:53;9.75;;;5.63;;
26620;SDS011;14253;44.840;10.444;2023-10-13T12:33:22;12.00;;;6.95;;
26620;SDS011;14253;44.840;10.444;2023-10-13T12:35:59;10.18;;;6.15;;
26620;SDS011;14253;44.840;10.444;2023-10-13T12:38:29;14.35;;;6.43;;
26620;SDS011;14253;44.840;10.444;2023-10-13T12:41:14;10.45;;;6.43;;
26620;SDS011;14253;44.840;10.444;2023-10-13T12:43:59;10.82;;;5.97;;
26620;SDS011;14253;44.840;10.444;2023-10-13T12:46:44;10.13;;;5.80;;
26620;SDS011;14253;44.840;10.444;2023-10-13T12:49:28;10.15;;;5.45;;
26620;SDS011;14253;44.840;10.444;2023-10-13T12:52:13;11.82;;;5.65;;
26620;SDS011;14253;44.840;10.444;2023-10-13T12:54:42;8.95;;;6.03;;
26620;SDS011;14253;44.840;10.444;2023-10-13T12:57:15;10.23;;;6.05;;
26620;SDS011;14253;44.840;10.444;2023-10-13T12:59:42;8.98;;;5.35;;
26620;SDS011;14253;44.840;10.444;2023-10-13T13:02:08;9.18;;;6.03;;
26620;SDS011;14253;44.840;10.444;2023-10-13T13:04:42;10.55;;;5.95;;
26620;SDS011;14253;44.840;10.444;2023-10-13T13:07:13;12.50;;;5.78;;
26620;SDS011;14253;44.840;10.444;2023-10-13T13:09:40;11.80;;;5.72;;
26620;SDS011;14253;44.840;10.444;2023-10-13T13:12:06;12.70;;;6.68;;
26620;SDS011;14253;44.840;10.444;2023-10-13T13:14:33;12.98;;;5.90;;
26620;SDS011;14253;44.840;10.444;2023-10-13T13:17:01;10.40;;;5.93;;
26620;SDS011;14253;44.840;10.444;2023-10-13T13:19:31;7.47;;;5.40;;
26620;SDS011;14253;44.840;10.444;2023-10-13T13:22:02;8.63;;;5.07;;
26620;SDS011;14253;44.840;10.444;2023-10-13T13:24:29;12.73;;;5.60;;
26620;SDS011;14253;44.840;10.444;2023-10-13T13:26:58;11.55;;;6.13;;
26620;SDS011;14253;44.840;10.444;2023-10-13T13:29:30;11.05;;;5.40;;
26620;SDS011;14253;44.840;10.444;2023-10-13T13:31:56;8.48;;;5.18;;
26620;SDS011;14253;44.840;10.444;2023-10-13T13:34:22;13.32;;;5.40;;
26620;SDS011;14253;44.840;10.444;2023-10-13T13:36:48;7.82;;;5.13;;
26620;SDS011;14253;44.840;10.444;2023-10-13T13:39:20;9.00;;;5.50;;
26620;SDS011;14253;44.840;10.444;2023-10-13T13:41:56;12.73;;;6.40;;
26620;SDS011;14253;44.840;10.444;2023-10-13T13:44:23;10.75;;;5.95;;
26620;SDS011;14253;44.840;10.444;2023-10-13T13:46:55;9.07;;;5.68;;
26620;SDS011;14253;44.840;10.444;2023-10-13T13:49:22;9.10;;;5.05;;
26620;SDS011;14253;44.840;10.444;2023-10-13T13:51:55;8.70;;;5.30;;
26620;SDS011;14253;44.840;10.444;2023-10-13T13:54:21;9.27;;;5.25;;
26620;SDS011;14253;44.840;10.444;2023-10-13T13:56:47;10.27;;;5.20;;
26620;SDS011;14253;44.840;10.444;2023-10-13T13:59:14;8.18;;;5.15;;
26620;SDS011;14253;44.840;10.444;2023-10-13T14:01:44;9.57;;;4.88;;
26620;SDS011;14253;44.840;10.444;2023-10-13T14:04:10;8.43;;;5.00;;
26620;SDS011;14253;44.840;10.444;2023-10-13T14:06:36;12.75;;;5.68;;
26620;SDS011;14253;44.840;10.444;2023-10-13T14:09:03;9.48;;;5.53;;
26620;SDS011;14253;44.840;10.444;2023-10-13T14:11:49;7.93;;;4.95;;
26620;SDS011;14253;44.840;10.444;2023-10-13T14:14:34;10.50;;;5.32;;
26620;SDS011;14253;44.840;10.444;2023-10-13T14:17:11;12.05;;;5.47;;
26620;SDS011;14253;44.840;10.444;2023-10-13T14:19:37;9.45;;;5.38;;
26620;SDS011;14253;44.840;10.444;2023-10-13T14:22:06;10.75;;;4.97;;
26620;SDS011;14253;44.840;10.444;2023-10-13T14:24:32;9.13;;;5.10;;
26620;SDS011;14253;44.840;10.444;2023-10-13T14:27:02;10.90;;;5.22;;
26620;SDS011;14253;44.840;10.444;2023-10-13T14:29:35;8.45;;;5.00;;
26620;SDS011;14253;44.840;10.444;2023-10-13T14:32:12;10.07;;;5.63;;
26620;SDS011;14253;44.840;10.444;2023-10-13T14:34:46;16.13;;;5.40;;
26620;SDS011;14253;44.840;10.444;2023-10-13T14:37:14;8.73;;;6.10;;
26620;SDS011;14253;44.840;10.444;2023-10-13T14:39:46;9.80;;;5.47;;
26620;SDS011;14253;44.840;10.444;2023-10-13T14:42:12;9.18;;;4.68;;
26620;SDS011;14253;44.840;10.444;2023-10-13T14:44:39;10.27;;;5.80;;
26620;SDS011;14253;44.840;10.444;2023-10-13T14:47:05;9.27;;;4.90;;
26620;SDS011;14253;44.840;10.444;2023-10-13T14:49:34;10.82;;;5.30;;
26620;SDS011;14253;44.840;10.444;2023-10-13T14:52:01;12.13;;;5.90;;
26620;SDS011;14253;44.840;10.444;2023-10-13T14:54:27;11.50;;;5.97;;
26620;SDS011;14253;44.840;10.444;2023-10-13T14:57:02;10.80;;;5.03;;
26620;SDS011;14253;44.840;10.444;2023-10-13T14:59:29;12.93;;;5.75;;
26620;SDS011;14253;44.840;10.444;2023-10-13T15:02:03;12.25;;;5.75;;
26620;SDS011;14253;44.840;10.444;2023-10-13T15:04:29;6.13;;;4.90;;
26620;SDS011;14253;44.840;10.444;2023-10-13T15:06:59;7.65;;;5.43;;
26620;SDS011;14253;44.840;10.444;2023-10-13T15:09:29;8.77;;;4.68;;
26620;SDS011;14253;44.840;10.444;2023-10-13T15:11:55;10.25;;;4.20;;
26620;SDS011;14253;44.840;10.444;2023-10-13T15:14:21;8.50;;;5.40;;
26620;SDS011;14253;44.840;10.444;2023-10-13T15:16:48;6.97;;;4.70;;
26620;SDS011;14253;44.840;10.444;2023-10-13T15:19:14;11.68;;;5.38;;
26620;SDS011;14253;44.840;10.444;2023-10-13T15:21:43;9.02;;;5.28;;